Terminal Aerodrome Forecast
Issued by NWS New Orleans/Baton Rouge, LA

Home | Current Version | Previous Version | Text Only | Print | Product List | Glossary On
Versions: 1 2 3 4 5 6 7 8 9 10 11 12
000
FTUS44 KLIX 231733
TAFNEW
TAF
KNEW 231733Z 2318/2418 03006KT P6SM SCT040 BKN250
     FM232300 12006KT P6SM BKN250
     FM241000 03005KT P6SM SCT040 BKN250 PROB30 2416/2418 4SM TSRA
      OVC025CB=

USA.gov is the U.S. government's official web portal to all federal, state and local government web resources and services.